createdAt,value
2023-02-05T00:01:41.018Z,12.13
2023-02-05T00:04:12.483Z,17.15
2023-02-05T00:06:44.760Z,17.87
2023-02-05T00:09:16.259Z,14.95
2023-02-05T00:11:47.700Z,14.85
2023-02-05T00:14:19.125Z,14.77
2023-02-05T00:16:51.693Z,15.13
2023-02-05T00:19:23.163Z,15.90
2023-02-05T00:21:54.640Z,12.65
2023-02-05T00:24:26.075Z,10.37
2023-02-05T00:26:57.557Z,6.93
2023-02-05T00:29:29.115Z,7.25
2023-02-05T00:32:00.629Z,7.57
2023-02-05T00:34:32.068Z,5.70
2023-02-05T00:37:03.566Z,5.40
2023-02-05T00:39:35.029Z,5.93
2023-02-05T00:42:06.495Z,3.88
2023-02-05T00:44:37.936Z,4.07
2023-02-05T00:47:09.359Z,5.47
2023-02-05T00:49:40.761Z,6.20
2023-02-05T00:52:12.240Z,4.28
2023-02-05T00:54:43.738Z,4.88
2023-02-05T00:57:15.165Z,6.00
2023-02-05T00:59:46.596Z,4.57
2023-02-05T01:02:19.515Z,5.90
2023-02-05T01:04:52.302Z,5.45
2023-02-05T01:07:23.843Z,5.47
2023-02-05T01:09:55.398Z,5.43
2023-02-05T01:12:26.849Z,4.55
2023-02-05T01:14:58.300Z,5.45
2023-02-05T01:17:29.811Z,5.43
2023-02-05T01:20:01.292Z,6.07
2023-02-05T01:22:32.772Z,7.50
2023-02-05T01:25:05.400Z,5.53
2023-02-05T01:27:37.206Z,4.97
2023-02-05T01:30:09.469Z,4.47
2023-02-05T01:32:40.919Z,7.18
2023-02-05T01:35:12.421Z,4.43
2023-02-05T01:37:43.911Z,4.45
2023-02-05T01:40:16.657Z,5.68
2023-02-05T01:42:48.300Z,5.57
2023-02-05T01:45:22.709Z,4.90
2023-02-05T01:47:56.613Z,4.25
2023-02-05T01:50:37.008Z,8.10
2023-02-05T01:53:11.645Z,5.07
2023-02-05T01:55:48.662Z,6.38
2023-02-05T01:58:20.211Z,7.00
2023-02-05T02:00:51.708Z,6.07
2023-02-05T02:03:25.377Z,5.25
2023-02-05T02:05:57.080Z,6.60
2023-02-05T02:08:28.716Z,6.30
2023-02-05T02:11:02.925Z,6.70
2023-02-05T02:13:36.538Z,8.95
2023-02-05T02:16:09.102Z,7.45
2023-02-05T02:18:41.018Z,8.23
2023-02-05T02:21:22.182Z,9.88
2023-02-05T02:24:19.456Z,5.68
2023-02-05T02:27:09.670Z,8.83
2023-02-05T02:29:44.193Z,8.88
2023-02-05T02:32:28.162Z,9.67
2023-02-05T02:35:10.964Z,6.80
2023-02-05T02:37:46.682Z,7.38
2023-02-05T02:40:23.938Z,9.20
2023-02-05T02:43:14.028Z,10.70
2023-02-05T02:45:51.571Z,8.32
2023-02-05T02:48:26.028Z,7.78
2023-02-05T02:50:58.749Z,8.60
2023-02-05T02:53:38.020Z,9.77
2023-02-05T02:56:12.398Z,10.27
2023-02-05T02:59:02.620Z,11.43
2023-02-05T03:01:37.766Z,9.93
2023-02-05T03:04:17.683Z,10.53
2023-02-05T03:06:52.257Z,10.70
2023-02-05T03:09:35.001Z,11.73
2023-02-05T03:12:06.502Z,10.80
2023-02-05T03:14:38.572Z,12.73
2023-02-05T03:17:10.240Z,13.73
2023-02-05T03:19:41.735Z,14.65
2023-02-05T03:22:13.215Z,15.23
2023-02-05T03:24:44.851Z,12.93
2023-02-05T03:27:16.459Z,13.10
2023-02-05T03:29:49.387Z,15.88
2023-02-05T03:32:36.626Z,12.43
2023-02-05T03:35:13.852Z,14.73
2023-02-05T03:38:08.337Z,13.95
2023-02-05T03:40:51.810Z,11.25
2023-02-05T03:43:58.333Z,12.80
2023-02-05T03:46:51.701Z,10.20
2023-02-05T03:49:41.980Z,8.97
2023-02-05T03:52:18.517Z,9.93
2023-02-05T03:55:13.407Z,11.45
2023-02-05T03:57:50.896Z,10.38
2023-02-05T04:00:24.691Z,11.88
2023-02-05T04:02:56.159Z,10.93
2023-02-05T04:05:27.553Z,11.65
2023-02-05T04:07:58.983Z,12.85
2023-02-05T04:10:30.433Z,10.20
2023-02-05T04:13:01.907Z,9.98
2023-02-05T04:15:33.761Z,11.27
2023-02-05T04:18:05.409Z,10.63
2023-02-05T04:20:36.833Z,11.13
2023-02-05T04:23:08.305Z,8.82
2023-02-05T04:25:39.933Z,8.40
2023-02-05T04:28:12.516Z,12.25
2023-02-05T04:30:44.007Z,12.70
2023-02-05T04:33:15.497Z,13.70
2023-02-05T04:35:47.105Z,15.30
2023-02-05T04:38:18.540Z,11.57
2023-02-05T04:40:49.967Z,17.35
2023-02-05T04:43:21.562Z,16.52
2023-02-05T04:45:53.069Z,17.63
2023-02-05T04:48:24.554Z,21.48
2023-02-05T04:50:56.006Z,20.92
2023-02-05T04:53:27.548Z,22.08
2023-02-05T04:56:15.870Z,21.38
2023-02-05T04:58:47.314Z,23.95
2023-02-05T05:01:21.710Z,25.60
2023-02-05T05:03:53.220Z,27.15
2023-02-05T05:06:25.442Z,25.40
2023-02-05T05:08:56.938Z,25.85
2023-02-05T05:11:28.428Z,21.08
2023-02-05T05:13:59.823Z,21.08
2023-02-05T05:16:31.270Z,22.23
2023-02-05T05:19:02.691Z,20.13
2023-02-05T05:21:34.129Z,16.80
2023-02-05T05:24:05.784Z,17.47
2023-02-05T05:26:37.272Z,17.98
2023-02-05T05:29:08.679Z,17.83
2023-02-05T05:31:41.136Z,16.20
2023-02-05T05:34:12.591Z,15.95
2023-02-05T05:36:47.492Z,16.15
2023-02-05T05:39:19.543Z,20.20
2023-02-05T05:41:50.980Z,19.33
2023-02-05T05:44:22.414Z,20.35
2023-02-05T05:46:53.853Z,20.52
2023-02-05T05:49:25.256Z,18.55
2023-02-05T05:51:56.694Z,22.85
2023-02-05T05:54:28.187Z,21.15
2023-02-05T05:56:59.668Z,22.35
2023-02-05T05:59:31.335Z,19.50
2023-02-05T06:02:03.244Z,20.08
2023-02-05T06:04:34.746Z,13.40
2023-02-05T06:07:06.219Z,21.38
2023-02-05T06:09:37.706Z,22.23
2023-02-05T06:12:11.370Z,24.55
2023-02-05T06:14:43.122Z,24.42
2023-02-05T06:17:14.520Z,24.77
2023-02-05T06:19:45.940Z,24.23
2023-02-05T06:22:17.335Z,24.33
2023-02-05T06:24:48.792Z,26.70
2023-02-05T06:27:20.308Z,27.77
2023-02-05T06:29:51.794Z,25.70
2023-02-05T06:32:25.828Z,27.73
2023-02-05T06:34:58.207Z,27.15
2023-02-05T06:37:46.025Z,30.75
2023-02-05T06:40:18.828Z,27.90
2023-02-05T06:42:50.304Z,26.53
2023-02-05T06:45:22.109Z,30.45
2023-02-05T06:47:53.555Z,25.45
2023-02-05T06:50:25.530Z,30.42
2023-02-05T06:52:57.043Z,26.13
2023-02-05T06:55:28.550Z,26.65
2023-02-05T06:57:59.954Z,29.20
2023-02-05T07:00:32.527Z,30.52
2023-02-05T07:03:04.287Z,27.63
2023-02-05T07:05:36.065Z,33.85
2023-02-05T07:08:07.719Z,30.52
2023-02-05T07:10:39.216Z,25.17
2023-02-05T07:13:10.662Z,26.58
2023-02-05T07:15:42.128Z,27.00
2023-02-05T07:18:13.590Z,32.75
2023-02-05T07:20:45.005Z,33.63
2023-02-05T07:23:16.416Z,23.55
2023-02-05T07:25:47.844Z,27.20
2023-02-05T07:28:19.278Z,22.20
2023-02-05T07:30:50.714Z,23.87
2023-02-05T07:33:22.190Z,26.13
2023-02-05T07:35:53.585Z,27.70
2023-02-05T07:38:25.000Z,25.38
2023-02-05T07:40:56.471Z,30.60
2023-02-05T07:43:27.932Z,27.05
2023-02-05T07:46:00.946Z,28.75
2023-02-05T07:48:33.263Z,27.33
2023-02-05T07:51:08.379Z,30.50
2023-02-05T07:53:39.819Z,34.97
2023-02-05T07:56:11.247Z,35.55
2023-02-05T07:58:42.978Z,34.90
2023-02-05T08:01:14.514Z,34.88
2023-02-05T08:03:46.218Z,39.97
2023-02-05T08:06:17.660Z,37.80
2023-02-05T08:08:49.125Z,36.80
2023-02-05T08:11:20.567Z,36.15
2023-02-05T08:13:51.991Z,38.28
2023-02-05T08:16:23.473Z,41.33
2023-02-05T08:18:54.880Z,37.05
2023-02-05T08:21:26.341Z,38.40
2023-02-05T08:23:57.855Z,42.92
2023-02-05T08:26:29.335Z,37.28
2023-02-05T08:29:00.840Z,36.83
2023-02-05T08:31:32.300Z,41.95
2023-02-05T08:34:05.140Z,37.13
2023-02-05T08:36:36.577Z,37.45
2023-02-05T08:39:08.050Z,38.63
2023-02-05T08:41:39.477Z,35.58
2023-02-05T08:44:10.941Z,39.83
2023-02-05T08:46:49.925Z,39.87
2023-02-05T08:49:22.262Z,39.55
2023-02-05T08:51:53.731Z,41.97
2023-02-05T08:54:25.596Z,33.67
2023-02-05T08:56:57.129Z,40.53
2023-02-05T08:59:28.588Z,38.13
2023-02-05T09:02:00.030Z,41.05
2023-02-05T09:04:31.552Z,41.97
2023-02-05T09:07:02.985Z,40.97
2023-02-05T09:09:34.476Z,38.00
2023-02-05T09:12:06.218Z,40.53
2023-02-05T09:14:39.039Z,47.42
2023-02-05T09:17:11.226Z,42.75
2023-02-05T09:19:42.700Z,41.33
2023-02-05T09:22:14.176Z,42.53
2023-02-05T09:24:45.583Z,42.33
2023-02-05T09:27:17.069Z,42.17
2023-02-05T09:29:48.481Z,41.78
2023-02-05T09:32:19.936Z,46.95
2023-02-05T09:34:51.407Z,40.25
2023-02-05T09:37:22.904Z,42.95
2023-02-05T09:43:18.963Z,41.88
2023-02-05T09:45:50.335Z,41.40
2023-02-05T09:48:46.082Z,41.70
2023-02-05T09:51:31.940Z,39.30
2023-02-05T09:54:22.454Z,39.95
2023-02-05T09:56:57.848Z,39.92
2023-02-05T09:59:30.653Z,38.65
2023-02-05T10:02:22.272Z,40.75
2023-02-05T10:04:54.788Z,35.17
2023-02-05T10:07:46.825Z,36.53
2023-02-05T10:10:25.929Z,40.45
2023-02-05T10:13:19.282Z,35.65
2023-02-05T10:15:53.525Z,43.25
2023-02-05T10:18:51.351Z,35.13
2023-02-05T10:21:39.089Z,39.80
2023-02-05T10:24:30.330Z,37.37
2023-02-05T10:27:14.216Z,36.47
2023-02-05T10:30:02.359Z,35.50
2023-02-05T10:32:47.538Z,40.88
2023-02-05T10:35:26.697Z,42.55
2023-02-05T10:37:58.197Z,37.53
2023-02-05T10:40:34.198Z,42.37
2023-02-05T10:43:27.351Z,33.30
2023-02-05T10:45:59.801Z,38.78
2023-02-05T10:48:40.840Z,37.55
2023-02-05T10:51:16.696Z,41.05
2023-02-05T10:53:48.197Z,33.20
2023-02-05T10:56:20.742Z,39.35
2023-02-05T10:58:55.776Z,39.13
2023-02-05T11:01:36.546Z,34.08
2023-02-05T11:04:16.623Z,32.95
2023-02-05T11:06:50.409Z,34.10
2023-02-05T11:09:24.608Z,35.40
2023-02-05T11:12:02.711Z,34.75
2023-02-05T11:14:37.984Z,36.03
2023-02-05T11:17:18.452Z,34.40
2023-02-05T11:20:00.320Z,36.97
2023-02-05T11:22:37.112Z,39.42
2023-02-05T11:25:24.232Z,36.90
2023-02-05T11:27:57.859Z,39.15
2023-02-05T11:33:28.503Z,34.33
2023-02-05T11:36:02.748Z,42.65
2023-02-05T11:38:43.225Z,35.85
2023-02-05T11:41:27.800Z,37.85
2023-02-05T11:44:02.102Z,33.60
2023-02-05T11:46:43.070Z,36.50
2023-02-05T11:49:22.892Z,36.10
2023-02-05T11:51:56.174Z,35.28
2023-02-05T11:54:30.436Z,34.03
2023-02-05T11:57:18.308Z,34.67
2023-02-05T12:00:18.280Z,37.70
2023-02-05T12:02:49.768Z,34.80
2023-02-05T12:05:27.035Z,33.00
2023-02-05T12:08:27.734Z,33.72
2023-02-05T12:11:17.388Z,33.22
2023-02-05T12:14:20.253Z,33.40
2023-02-05T12:17:06.032Z,35.92
2023-02-05T12:19:51.837Z,37.00
2023-02-05T12:22:55.630Z,31.70
2023-02-05T12:25:38.123Z,31.00
2023-02-05T12:28:22.964Z,35.03
2023-02-05T12:31:18.640Z,32.85
2023-02-05T12:34:24.771Z,31.05
2023-02-05T12:37:14.712Z,32.28
2023-02-05T12:39:50.440Z,35.80
2023-02-05T12:42:36.172Z,28.27
2023-02-05T12:45:25.961Z,38.90
2023-02-05T12:48:18.673Z,35.38
2023-02-05T12:51:21.408Z,32.63
2023-02-05T12:54:27.338Z,32.78
2023-02-05T12:57:08.556Z,29.15
2023-02-05T12:59:39.948Z,34.28
2023-02-05T13:02:26.450Z,33.13
2023-02-05T13:05:13.267Z,28.23
2023-02-05T13:08:05.922Z,32.60
2023-02-05T13:11:05.931Z,32.50
2023-02-05T13:13:50.644Z,37.15
2023-02-05T13:16:30.134Z,29.25
2023-02-05T13:19:10.056Z,28.45
2023-02-05T13:21:42.529Z,33.08
2023-02-05T13:24:35.797Z,36.80
2023-02-05T13:27:21.509Z,31.02
2023-02-05T13:29:53.939Z,40.17
2023-02-05T13:32:26.156Z,38.05
2023-02-05T13:34:57.667Z,34.80
2023-02-05T13:38:00.380Z,38.57
2023-02-05T13:40:43.942Z,33.70
2023-02-05T13:43:38.933Z,32.88
2023-02-05T13:46:29.860Z,37.78
2023-02-05T13:49:20.156Z,33.47
2023-02-05T13:51:51.526Z,31.75
2023-02-05T13:54:58.276Z,38.80
2023-02-05T13:57:54.069Z,34.90
2023-02-05T14:00:26.539Z,37.73
2023-02-05T14:03:00.060Z,34.38
2023-02-05T14:05:37.718Z,36.67
2023-02-05T14:08:24.261Z,27.35
2023-02-05T14:11:02.184Z,31.50
2023-02-05T14:13:34.907Z,37.85
2023-02-05T14:16:24.401Z,33.05
2023-02-05T14:19:01.973Z,34.67
2023-02-05T14:21:33.382Z,33.33
2023-02-05T14:24:38.628Z,29.50
2023-02-05T14:27:40.203Z,34.33
2023-02-05T14:30:29.881Z,32.13
2023-02-05T14:33:26.799Z,28.63
2023-02-05T14:36:18.205Z,36.50
2023-02-05T14:39:00.942Z,34.13
2023-02-05T14:41:41.548Z,35.17
2023-02-05T14:44:12.949Z,38.78
2023-02-05T14:47:04.657Z,38.25
2023-02-05T14:49:41.379Z,33.38
2023-02-05T14:52:27.975Z,39.78
2023-02-05T14:55:05.468Z,40.40
2023-02-05T14:58:00.302Z,32.95
2023-02-05T15:00:38.411Z,32.90
2023-02-05T15:03:12.860Z,29.30
2023-02-05T15:05:44.235Z,26.73
2023-02-05T15:08:34.121Z,36.00
2023-02-05T15:11:09.360Z,34.65
2023-02-05T15:13:41.256Z,37.00
2023-02-05T15:16:12.752Z,37.03
2023-02-05T15:18:47.233Z,32.50
2023-02-05T15:21:33.526Z,37.25
2023-02-05T15:24:24.591Z,37.40
2023-02-05T15:26:58.744Z,39.13
2023-02-05T15:29:49.529Z,35.67
2023-02-05T15:32:35.276Z,34.15
2023-02-05T15:35:15.141Z,45.53
2023-02-05T15:37:52.814Z,36.10
2023-02-05T15:40:30.622Z,33.95
2023-02-05T15:43:15.791Z,35.28
2023-02-05T15:45:48.083Z,39.65
2023-02-05T15:48:25.667Z,40.35
2023-02-05T15:51:02.263Z,37.23
2023-02-05T15:53:44.920Z,38.80
2023-02-05T15:56:27.224Z,41.08
2023-02-05T15:59:12.929Z,37.70
2023-02-05T16:01:48.005Z,41.63
2023-02-05T16:04:22.260Z,38.60
2023-02-05T16:06:53.767Z,38.58
2023-02-05T16:09:28.323Z,35.10
2023-02-05T16:12:12.036Z,34.85
2023-02-05T16:14:43.906Z,39.70
2023-02-05T16:17:48.692Z,40.70
2023-02-05T16:20:30.197Z,35.65
2023-02-05T16:23:09.051Z,37.05
2023-02-05T16:25:45.640Z,40.40
2023-02-05T16:28:22.976Z,38.53
2023-02-05T16:30:57.058Z,40.47
2023-02-05T16:33:43.372Z,34.03
2023-02-05T16:36:31.800Z,42.67
2023-02-05T16:39:07.127Z,40.97
2023-02-05T16:41:42.608Z,43.63
2023-02-05T16:44:36.126Z,41.47
2023-02-05T16:47:19.255Z,45.88
2023-02-05T16:49:50.744Z,33.80
2023-02-05T16:52:36.183Z,39.47
2023-02-05T16:55:27.584Z,41.83
2023-02-05T16:58:05.335Z,33.85
2023-02-05T17:00:37.083Z,39.60
2023-02-05T17:03:19.120Z,40.67
2023-02-05T17:05:56.986Z,41.33
2023-02-05T17:08:35.175Z,41.08
2023-02-05T17:11:27.671Z,40.65
2023-02-05T17:14:29.292Z,42.33
2023-02-05T17:17:16.316Z,47.47
2023-02-05T17:20:07.631Z,41.35
2023-02-05T17:22:39.059Z,43.90
2023-02-05T17:25:10.516Z,46.78
2023-02-05T17:27:42.163Z,45.90
2023-02-05T17:30:18.180Z,45.85
2023-02-05T17:32:49.716Z,47.38
2023-02-05T17:35:22.390Z,46.67
2023-02-05T17:37:53.856Z,40.60
2023-02-05T17:40:25.324Z,34.42
2023-02-05T17:42:56.820Z,41.00
2023-02-05T17:45:32.448Z,34.20
2023-02-05T17:48:04.216Z,38.33
2023-02-05T17:50:36.695Z,44.92
2023-02-05T17:53:11.497Z,45.95
2023-02-05T17:55:42.992Z,46.40
2023-02-05T17:58:14.492Z,39.70
2023-02-05T18:00:45.949Z,42.65
2023-02-05T18:03:17.468Z,45.38
2023-02-05T18:05:48.935Z,41.15
2023-02-05T18:08:20.392Z,40.38
2023-02-05T18:10:51.823Z,29.63
2023-02-05T18:13:23.308Z,39.92
2023-02-05T18:15:54.848Z,36.70
2023-02-05T18:18:26.345Z,38.83
2023-02-05T18:20:58.660Z,34.37
2023-02-05T18:23:30.560Z,39.90
2023-02-05T18:26:05.116Z,36.85
2023-02-05T18:28:36.557Z,36.55
2023-02-05T18:31:09.423Z,42.85
2023-02-05T18:33:41.319Z,35.47
2023-02-05T18:36:14.350Z,42.07
2023-02-05T18:38:45.791Z,40.35
2023-02-05T18:41:20.235Z,45.53
2023-02-05T18:43:55.479Z,44.53
2023-02-05T18:46:27.006Z,42.75
2023-02-05T18:48:58.499Z,45.55
2023-02-05T18:51:30.080Z,35.45
2023-02-05T18:54:01.540Z,43.33
2023-02-05T18:56:33.994Z,47.05
2023-02-05T18:59:07.484Z,40.05
2023-02-05T19:01:39.904Z,41.65
2023-02-05T19:04:14.476Z,41.35
2023-02-05T19:06:48.727Z,47.30
2023-02-05T19:09:25.625Z,47.22
2023-02-05T19:11:57.175Z,43.97
2023-02-05T19:14:28.915Z,50.05
2023-02-05T19:17:00.354Z,46.57
2023-02-05T19:19:31.863Z,44.97
2023-02-05T19:22:03.397Z,36.67
2023-02-05T19:24:34.841Z,38.90
2023-02-05T19:27:06.383Z,41.43
2023-02-05T19:29:37.943Z,46.60
2023-02-05T19:32:09.438Z,38.38
2023-02-05T19:34:40.896Z,43.15
2023-02-05T19:37:12.518Z,42.42
2023-02-05T19:39:43.939Z,43.80
2023-02-05T19:42:15.365Z,44.95
2023-02-05T19:44:46.820Z,47.75
2023-02-05T19:47:18.447Z,47.92
2023-02-05T19:49:49.922Z,49.25
2023-02-05T19:52:21.359Z,46.53
2023-02-05T19:54:52.785Z,41.72
2023-02-05T19:57:24.265Z,51.60
2023-02-05T19:59:55.685Z,44.67
2023-02-05T20:02:27.626Z,47.10
2023-02-05T20:04:59.151Z,56.50
2023-02-05T20:07:30.799Z,46.83
2023-02-05T20:10:02.237Z,48.92
2023-02-05T20:12:33.779Z,43.80
2023-02-05T20:15:05.620Z,39.60
2023-02-05T20:17:37.357Z,38.28
2023-02-05T20:20:17.609Z,41.87
2023-02-05T20:22:53.792Z,52.33
2023-02-05T20:25:25.208Z,43.97
2023-02-05T20:27:56.727Z,44.90
2023-02-05T20:30:28.193Z,49.60
2023-02-05T20:32:59.731Z,55.27
2023-02-05T20:35:31.183Z,51.67
2023-02-05T20:38:02.963Z,40.90
2023-02-05T20:40:34.705Z,46.10
2023-02-05T20:43:06.373Z,45.92
2023-02-05T20:45:37.830Z,40.42
2023-02-05T20:48:09.248Z,32.97
2023-02-05T20:50:40.909Z,37.10
2023-02-05T20:53:12.304Z,36.00
2023-02-05T20:55:43.704Z,37.17
2023-02-05T20:58:15.105Z,46.40
2023-02-05T21:00:46.758Z,37.70
2023-02-05T21:03:18.160Z,45.07
2023-02-05T21:05:49.583Z,40.20
2023-02-05T21:08:21.062Z,50.95
2023-02-05T21:10:52.532Z,44.20
2023-02-05T21:13:23.995Z,48.03
2023-02-05T21:15:58.350Z,50.42
2023-02-05T21:18:30.690Z,49.03
2023-02-05T21:21:10.597Z,43.22
2023-02-05T21:23:42.937Z,38.08
2023-02-05T21:26:22.912Z,45.58
2023-02-05T21:28:56.987Z,45.30
2023-02-05T21:31:30.937Z,36.33
2023-02-05T21:34:04.775Z,45.35
2023-02-05T21:36:36.404Z,51.45
2023-02-05T21:39:07.922Z,53.13
2023-02-05T21:41:39.326Z,57.00
2023-02-05T21:44:11.000Z,36.05
2023-02-05T21:46:42.976Z,37.50
2023-02-05T21:49:14.447Z,39.83
2023-02-05T21:51:45.885Z,40.13
2023-02-05T21:54:17.353Z,36.05
2023-02-05T21:56:48.753Z,39.03
2023-02-05T21:59:20.152Z,40.95
2023-02-05T22:01:51.718Z,32.05
2023-02-05T22:04:23.203Z,32.00
2023-02-05T22:06:54.672Z,37.75
2023-02-05T22:09:26.123Z,32.88
2023-02-05T22:11:57.612Z,34.20
2023-02-05T22:14:30.364Z,31.15
2023-02-05T22:17:01.853Z,32.10
2023-02-05T22:19:33.298Z,39.45
2023-02-05T22:22:04.729Z,46.23
2023-02-05T22:24:36.146Z,29.63
2023-02-05T22:27:07.643Z,33.45
2023-02-05T22:29:39.109Z,31.58
2023-02-05T22:32:10.559Z,31.37
2023-02-05T22:34:43.567Z,39.50
2023-02-05T22:37:15.111Z,49.42
2023-02-05T22:39:47.501Z,34.08
2023-02-05T22:42:19.173Z,38.42
2023-02-05T22:44:50.663Z,32.05
2023-02-05T22:47:22.097Z,37.15
2023-02-05T22:49:53.501Z,43.63
2023-02-05T22:52:24.973Z,38.88
2023-02-05T22:54:56.377Z,34.05
2023-02-05T22:57:27.808Z,37.55
2023-02-05T22:59:59.211Z,39.50
2023-02-05T23:02:30.900Z,43.33
2023-02-05T23:05:02.414Z,36.58
2023-02-05T23:07:33.836Z,40.70
2023-02-05T23:10:05.487Z,36.47
2023-02-05T23:12:36.924Z,35.60
2023-02-05T23:15:08.562Z,36.22
2023-02-05T23:17:40.605Z,35.33
2023-02-05T23:20:12.267Z,32.00
2023-02-05T23:22:43.748Z,36.53
2023-02-05T23:25:15.291Z,31.77
2023-02-05T23:27:46.743Z,33.08
2023-02-05T23:30:18.472Z,29.60
2023-02-05T23:32:49.928Z,36.63
2023-02-05T23:35:21.328Z,36.70
2023-02-05T23:37:52.768Z,31.10
2023-02-05T23:40:24.197Z,35.95
2023-02-05T23:42:55.616Z,31.47
2023-02-05T23:45:27.041Z,45.65
2023-02-05T23:47:58.460Z,27.00
2023-02-05T23:50:29.915Z,33.92
2023-02-05T23:53:01.371Z,40.05
2023-02-05T23:55:32.906Z,33.63
2023-02-05T23:58:04.446Z,46.07
